Time;durP1;ratioP1;P1;durP2;ratioP2;P2;SDS_P1;SDS_P2;PMS_P1;PMS_P2;Temp;Humidity;BMP_temperature;BMP_pressure;BME280_temperature;BME280_humidity;BME280_pressure;Samples;Min_cycle;Max_cycle;Signal;HPM_P1;HPM_P2
2022/01/12 00:00:16;;;;;;;0.40;0.30;;;;;;;0.09;100.00;103083.66;5096285;28;20444;-74
2022/01/12 00:02:43;;;;;;;0.40;0.30;;;;;;;0.04;100.00;103080.69;5095946;28;20483;-74
2022/01/12 00:05:10;;;;;;;0.40;0.20;;;;;;;-0.01;100.00;103076.69;5096220;28;20448;-74
2022/01/12 00:07:36;;;;;;;0.40;0.30;;;;;;;0.10;100.00;103088.84;5097556;28;20452;-74
2022/01/12 00:10:04;;;;;;;0.40;0.30;;;;;;;0.18;100.00;103086.19;5096147;28;20436;-75
2022/01/12 00:12:30;;;;;;;0.40;0.30;;;;;;;0.22;100.00;103074.19;5096352;28;20456;-74
2022/01/12 00:14:58;;;;;;;0.40;0.30;;;;;;;0.21;100.00;103080.47;5095994;28;20487;-73
2022/01/12 00:17:24;;;;;;;0.40;0.30;;;;;;;0.17;99.49;103057.84;5096028;28;20865;-74
2022/01/12 00:19:51;;;;;;;0.40;0.30;;;;;;;0.13;100.00;103066.34;5095938;28;20949;-74
2022/01/12 00:22:17;;;;;;;0.40;0.30;;;;;;;0.14;100.00;103062.69;5095855;28;20460;-75
2022/01/12 00:25:05;;;;;;;0.40;0.30;;;;;;;0.14;100.00;103062.69;5095858;28;20439;-74
2022/01/12 00:33:11;;;;;;;18.30;17.30;;;;;;;0.14;100.00;103063.53;5095330;28;20988;-74
2022/01/12 00:35:38;;;;;;;0.40;0.30;;;;;;;0.20;100.00;103065.50;5095605;28;20500;-75
2022/01/12 00:38:05;;;;;;;0.93;0.93;;;;;;;0.20;100.00;103073.50;5095599;28;20444;-74
2022/01/12 00:40:31;;;;;;;0.40;0.30;;;;;;;0.23;100.00;103067.00;5095492;28;20448;-73
2022/01/12 00:42:58;;;;;;;0.40;0.30;;;;;;;0.27;100.00;103072.81;5095502;28;20459;-72
2022/01/12 00:45:26;;;;;;;0.40;0.30;;;;;;;0.34;100.00;103071.97;5095459;28;20451;-71
2022/01/12 00:47:52;;;;;;;0.40;0.30;;;;;;;0.33;100.00;103070.31;5095084;28;20953;-71
2022/01/12 00:50:19;;;;;;;0.40;0.30;;;;;;;0.34;100.00;103076.47;5095337;28;20437;-72
2022/01/12 00:52:45;;;;;;;0.40;0.30;;;;;;;0.32;99.86;103067.81;5094912;28;20465;-71
2022/01/12 00:55:12;;;;;;;0.40;0.30;;;;;;;0.28;100.00;103061.16;5095190;28;20490;-74
2022/01/12 00:57:40;;;;;;;2.43;2.33;;;;;;;0.24;99.83;103071.34;5094862;28;20926;-74
2022/01/12 01:00:08;;;;;;;0.40;0.30;;;;;;;0.16;100.00;103071.34;5095225;28;20446;-74
2022/01/12 01:02:36;;;;;;;0.50;0.50;;;;;;;0.15;100.00;103073.19;5094849;28;20472;-74
2022/01/12 01:05:03;;;;;;;2.83;2.73;;;;;;;0.10;100.00;103072.03;5095079;28;20452;-74
2022/01/12 01:07:29;;;;;;;0.40;0.30;;;;;;;0.03;100.00;103066.53;5095021;28;20441;-74
2022/01/12 01:10:03;;;;;;;11.47;10.70;;;;;;;0.09;100.00;103067.69;5094681;28;20850;-74
2022/01/12 01:12:30;;;;;;;0.40;0.30;;;;;;;0.10;100.00;103064.88;5094911;28;20551;-74
2022/01/12 01:15:04;;;;;;;0.40;0.30;;;;;;;0.15;100.00;103059.84;5094817;28;20484;-74
2022/01/12 01:25:47;;;;;;;0.40;0.30;;;;;;;-0.02;100.00;103048.41;5094481;28;20404;-74
2022/01/12 01:28:15;;;;;;;0.40;0.30;;;;;;;0.04;100.00;103052.22;5094846;28;20833;-74
2022/01/12 01:30:43;;;;;;;0.40;0.30;;;;;;;0.03;100.00;103058.53;5094586;28;20479;-74
2022/01/12 01:33:12;;;;;;;0.40;0.30;;;;;;;0.06;100.00;103063.53;5094437;28;20460;-74
2022/01/12 01:35:41;;;;;;;0.40;0.30;;;;;;;0.08;100.00;103064.19;5094090;28;21004;-74
2022/01/12 01:38:09;;;;;;;0.40;0.30;;;;;;;0.12;100.00;103070.84;5093042;28;20961;-74
2022/01/12 01:40:41;;;;;;;0.40;0.30;;;;;;;0.15;100.00;103069.69;5094325;28;20440;-74
2022/01/12 01:43:16;;;;;;;0.40;0.30;;;;;;;0.14;100.00;103068.88;5093692;28;20950;-74
2022/01/12 01:53:57;;;;;;;0.40;0.30;;;;;;;0.10;100.00;103062.22;5093930;28;20815;-74
2022/01/12 01:56:24;;;;;;;0.40;0.30;;;;;;;0.12;100.00;103070.84;5093951;28;20568;-74
2022/01/12 01:58:50;;;;;;;0.40;0.30;;;;;;;0.18;100.00;103072.84;5094045;28;20448;-74
2022/01/12 02:01:17;;;;;;;0.40;0.30;;;;;;;0.24;100.00;103058.84;5093990;28;20432;-74
2022/01/12 02:03:44;;;;;;;0.40;0.30;;;;;;;0.31;100.00;103059.00;5093478;28;20484;-74
2022/01/12 02:06:12;;;;;;;0.40;0.30;;;;;;;0.33;100.00;103064.16;5093920;28;20458;-74
2022/01/12 02:08:39;;;;;;;0.40;0.30;;;;;;;0.31;100.00;103068.81;5093910;28;20437;-74
2022/01/12 02:11:06;;;;;;;0.40;0.30;;;;;;;0.25;100.00;103062.31;5093621;28;20436;-74
2022/01/12 02:13:32;;;;;;;1.17;1.07;;;;;;;0.16;100.00;103058.84;5093740;28;20464;-74
2022/01/12 02:15:59;;;;;;;0.40;0.30;;;;;;;0.09;100.00;103062.34;5093738;28;20476;-74
2022/01/12 02:18:39;;;;;;;0.40;0.30;;;;;;;0.08;100.00;103053.53;5093586;28;20456;-74
2022/01/12 02:35:20;;;;;;;0.40;0.30;;;;;;;0.12;100.00;103054.84;5093492;28;20504;-73
2022/01/12 02:40:37;;;;;;;0.40;0.30;;;;;;;0.14;100.00;103052.88;5093338;28;20784;-73
2022/01/12 02:43:11;;;;;;;0.40;0.30;;;;;;;0.17;100.00;103052.50;5093431;28;20557;-73
2022/01/12 02:51:14;;;;;;;0.40;0.30;;;;;;;0.17;100.00;103052.50;5093429;28;20404;-73
2022/01/12 02:53:42;;;;;;;0.40;0.30;;;;;;;0.15;100.00;103045.72;5093310;28;20528;-73
2022/01/12 02:56:10;;;;;;;0.40;0.30;;;;;;;0.12;100.00;103046.88;5093197;28;20472;-73
2022/01/12 02:58:37;;;;;;;0.40;0.30;;;;;;;0.12;100.00;103049.53;5093253;28;20440;-73
2022/01/12 03:01:28;;;;;;;0.40;0.30;;;;;;;0.17;100.00;103038.34;5093245;28;20436;-73
2022/01/12 03:03:57;;;;;;;0.40;0.30;;;;;;;0.15;100.00;103041.22;5092094;28;20498;-73
2022/01/12 03:06:27;;;;;;;1.33;1.23;;;;;;;0.19;100.00;103037.19;5093244;28;20490;-73
2022/01/12 03:08:56;;;;;;;0.40;0.30;;;;;;;0.22;100.00;103038.66;5093234;28;20516;-73
2022/01/12 03:11:23;;;;;;;0.40;0.30;;;;;;;0.19;100.00;103039.03;5092552;28;20826;-73
2022/01/12 03:13:51;;;;;;;0.47;0.40;;;;;;;0.18;100.00;103040.03;5093081;28;20472;-74
2022/01/12 03:16:21;;;;;;;0.50;0.47;;;;;;;0.21;100.00;103031.69;5093038;28;20485;-73
2022/01/12 03:18:49;;;;;;;0.40;0.30;;;;;;;0.14;100.00;103026.22;5092862;28;20937;-73
2022/01/12 03:21:17;;;;;;;0.40;0.27;;;;;;;0.15;100.00;103032.38;5092986;28;20448;-73
2022/01/12 03:23:45;;;;;;;0.40;0.30;;;;;;;0.18;100.00;103046.19;5092962;28;20457;-73
2022/01/12 03:26:13;;;;;;;1.87;1.77;;;;;;;0.20;100.00;103041.53;5093046;28;20443;-73
2022/01/12 03:28:41;;;;;;;0.40;0.20;;;;;;;0.20;100.00;103038.84;5092958;28;20432;-73
2022/01/12 03:31:15;;;;;;;0.40;0.30;;;;;;;0.18;100.00;103040.88;5092998;28;20444;-72
2022/01/12 03:33:55;;;;;;;0.40;0.30;;;;;;;0.23;100.00;103051.84;5092890;28;20456;-73
2022/01/12 03:36:28;;;;;;;0.40;0.30;;;;;;;0.24;100.00;103032.19;5092932;28;20551;-73
2022/01/12 03:38:56;;;;;;;3.80;3.60;;;;;;;0.24;100.00;103026.84;5092937;28;20432;-73
2022/01/12 03:41:25;;;;;;;0.40;0.30;;;;;;;0.23;100.00;103035.84;5093118;28;20452;-74
2022/01/12 03:43:52;;;;;;;0.40;0.30;;;;;;;0.24;100.00;103037.50;5092820;28;20517;-74
2022/01/12 03:46:22;;;;;;;0.40;0.30;;;;;;;0.27;100.00;103043.50;5092513;28;20968;-73
2022/01/12 03:48:49;;;;;;;0.40;0.30;;;;;;;0.31;100.00;103047.47;5092822;28;20437;-73
2022/01/12 03:51:15;;;;;;;1.13;1.13;;;;;;;0.32;100.00;103042.00;5092789;28;20471;-73
2022/01/12 03:53:42;;;;;;;0.40;0.30;;;;;;;0.32;100.00;103047.31;5092730;28;20468;-73
2022/01/12 03:56:08;;;;;;;0.40;0.30;;;;;;;0.36;100.00;103039.81;5092660;28;20483;-73
2022/01/12 03:58:36;;;;;;;0.40;0.30;;;;;;;0.41;100.00;103048.13;5092793;28;20452;-74
2022/01/12 04:01:02;;;;;;;0.40;0.40;;;;;;;0.44;100.00;103047.75;5093478;28;20451;-73
2022/01/12 04:03:35;;;;;;;0.40;0.30;;;;;;;0.46;100.00;103035.09;5096152;28;20464;-73
2022/01/12 04:08:45;;;;;;;0.40;0.30;;;;;;;0.49;100.00;103034.78;5096263;28;20407;-74
2022/01/12 04:11:12;;;;;;;0.70;0.70;;;;;;;0.52;100.00;103039.75;5096382;28;20518;-74
2022/01/12 04:13:42;;;;;;;0.40;0.30;;;;;;;0.55;100.00;103034.06;5096040;28;20836;-74
2022/01/12 04:16:08;;;;;;;0.40;0.30;;;;;;;0.58;100.00;103041.72;5095899;28;20487;-74
2022/01/12 04:18:35;;;;;;;0.40;0.30;;;;;;;0.58;100.00;103033.72;5095961;28;20452;-73
2022/01/12 04:21:05;;;;;;;0.50;0.50;;;;;;;0.60;100.00;103025.53;5095935;28;20441;-73
2022/01/12 04:23:32;;;;;;;0.40;0.30;;;;;;;0.60;100.00;103025.53;5096242;28;20555;-73
2022/01/12 04:26:00;;;;;;;0.40;0.30;;;;;;;0.51;100.00;103035.41;5095920;28;20447;-73
2022/01/12 04:28:29;;;;;;;1.77;1.70;;;;;;;0.55;100.00;103036.72;5095806;28;20444;-74
2022/01/12 04:30:58;;;;;;;0.40;0.30;;;;;;;0.54;100.00;103031.59;5095714;28;21016;-74
2022/01/12 04:33:25;;;;;;;0.40;0.30;;;;;;;0.53;100.00;103046.72;5095337;28;20456;-74
2022/01/12 04:35:54;;;;;;;0.40;0.30;;;;;;;0.49;100.00;103037.44;5095594;28;20487;-74
2022/01/12 04:38:23;;;;;;;0.40;0.30;;;;;;;0.44;100.00;103032.63;5095922;28;20472;-74
2022/01/12 04:40:51;;;;;;;0.40;0.30;;;;;;;0.37;100.00;103025.47;5095831;28;20449;-74
2022/01/12 04:43:18;;;;;;;0.40;0.30;;;;;;;0.41;100.00;103032.97;5095459;28;20460;-74
2022/01/12 04:46:20;;;;;;;0.40;0.30;;;;;;;0.40;100.00;103035.78;5094597;28;20528;-74
2022/01/12 04:49:07;;;;;;;0.40;0.30;;;;;;;0.47;100.00;103037.59;5094973;28;20942;-74
2022/01/12 04:51:34;;;;;;;1.77;1.67;;;;;;;0.49;100.00;103024.94;5095213;28;20918;-73
2022/01/12 04:54:00;;;;;;;0.40;0.30;;;;;;;0.49;100.00;103032.09;5095201;28;20464;-75
2022/01/12 04:56:28;;;;;;;0.40;0.30;;;;;;;0.53;100.00;103041.38;5095333;28;20484;-72
2022/01/12 04:58:55;;;;;;;0.40;0.30;;;;;;;0.58;100.00;103027.56;5095517;28;20547;-72
2022/01/12 05:01:25;;;;;;;0.40;0.30;;;;;;;0.62;100.00;103043.03;5095570;28;20444;-74
2022/01/12 05:06:56;;;;;;;0.40;0.30;;;;;;;0.68;100.00;103042.34;5095285;28;20400;-74
2022/01/12 05:09:46;;;;;;;0.40;0.30;;;;;;;0.75;100.00;103053.97;5094836;28;20966;-70
2022/01/12 05:15:06;;;;;;;0.40;0.30;;;;;;;0.82;100.00;103053.28;5095106;28;20786;-71
2022/01/12 05:17:34;;;;;;;0.40;0.30;;;;;;;0.83;100.00;103046.94;5094911;28;20464;-70
2022/01/12 05:20:02;;;;;;;0.40;0.30;;;;;;;0.87;100.00;103042.91;5094851;28;20515;-70
2022/01/12 05:22:28;;;;;;;0.50;0.30;;;;;;;0.78;100.00;103046.63;5094739;28;20464;-70
2022/01/12 05:24:54;;;;;;;0.53;0.30;;;;;;;0.72;100.00;103041.00;5094805;28;20449;-70
2022/01/12 05:27:21;;;;;;;20.50;18.30;;;;;;;0.78;100.00;103046.63;5094692;28;20553;-70
2022/01/12 05:29:47;;;;;;;0.63;0.63;;;;;;;0.79;100.00;103050.94;5094853;28;20440;-71
2022/01/12 05:32:14;;;;;;;0.50;0.50;;;;;;;0.70;100.00;103048.31;5094163;28;20471;-70
2022/01/12 05:34:41;;;;;;;0.40;0.30;;;;;;;0.71;100.00;103039.34;5094603;28;20945;-70
2022/01/12 05:37:09;;;;;;;0.40;0.30;;;;;;;0.74;100.00;103041.63;5094697;28;20484;-71
2022/01/12 05:39:35;;;;;;;0.53;0.53;;;;;;;0.73;100.00;103029.31;5094288;28;20478;-70
2022/01/12 05:42:02;;;;;;;0.40;0.30;;;;;;;0.66;100.00;103015.00;5094574;28;20455;-70
2022/01/12 05:44:28;;;;;;;0.40;0.20;;;;;;;0.66;100.00;103015.00;5094375;28;20443;-70
2022/01/12 05:46:55;;;;;;;0.40;0.20;;;;;;;0.64;100.00;103017.03;5094342;28;20437;-71
2022/01/12 05:49:36;;;;;;;0.40;0.30;;;;;;;0.62;100.00;103008.38;5094283;28;20440;-71
2022/01/12 05:52:04;;;;;;;0.40;0.30;;;;;;;0.65;100.00;103005.34;5094159;28;20779;-71
2022/01/12 05:54:32;;;;;;;0.40;0.30;;;;;;;0.68;100.00;103002.34;5094225;28;20440;-71
2022/01/12 05:56:59;;;;;;;0.40;0.30;;;;;;;0.66;100.00;103004.31;5094091;28;20538;-73
2022/01/12 05:59:25;;;;;;;0.40;0.30;;;;;;;0.68;100.00;103002.34;5094067;28;20444;-71
2022/01/12 06:01:51;;;;;;;0.40;0.30;;;;;;;0.69;100.00;103004.00;5093522;28;20960;-71
2022/01/12 06:04:18;;;;;;;0.40;0.30;;;;;;;0.56;100.00;103006.38;5093961;28;20808;-70
2022/01/12 06:06:44;;;;;;;0.40;0.30;;;;;;;0.62;100.00;103013.72;5095274;28;20466;-70
2022/01/12 06:09:11;;;;;;;0.40;0.30;;;;;;;0.57;100.00;103002.72;5093883;28;20444;-70
2022/01/12 06:11:39;;;;;;;0.40;0.20;;;;;;;0.58;100.00;103004.41;5093875;28;20448;-70
2022/01/12 06:14:07;;;;;;;0.40;0.30;;;;;;;0.59;100.00;103003.38;5093742;28;20464;-71
2022/01/12 06:16:34;;;;;;;0.40;0.30;;;;;;;0.56;100.00;103003.72;5093768;28;20523;-70
2022/01/12 06:19:00;;;;;;;0.40;0.30;;;;;;;0.57;100.00;103002.72;5093759;28;20440;-71
2022/01/12 06:21:26;;;;;;;0.40;0.30;;;;;;;0.59;100.00;103000.72;5093493;28;20851;-70
2022/01/12 06:23:53;;;;;;;0.40;0.30;;;;;;;0.58;100.00;103000.91;5093110;28;20456;-70
2022/01/12 06:26:23;;;;;;;0.40;0.20;;;;;;;0.55;100.00;103007.41;5093609;28;20440;-70
2022/01/12 06:29:15;;;;;;;0.40;0.30;;;;;;;0.54;100.00;103012.91;5093646;28;20444;-70
2022/01/12 06:31:45;;;;;;;0.40;0.30;;;;;;;0.49;100.00;103014.28;5093468;28;20451;-70
2022/01/12 06:34:12;;;;;;;0.40;0.30;;;;;;;0.55;100.00;103028.72;5093574;28;20428;-70
2022/01/12 06:36:39;;;;;;;0.40;0.30;;;;;;;0.60;100.00;103026.38;5093425;28;20488;-70
2022/01/12 06:39:07;;;;;;;0.40;0.30;;;;;;;0.57;100.00;103026.72;5093341;28;20478;-71
2022/01/12 06:41:33;;;;;;;13.60;12.40;;;;;;;0.57;100.00;103025.88;5093127;28;20448;-71
2022/01/12 06:44:01;;;;;;;14.70;10.20;;;;;;;0.54;100.00;103021.75;5093268;28;20464;-70
2022/01/12 06:46:30;;;;;;;0.50;0.50;;;;;;;0.66;100.00;103017.66;5093427;28;20452;-70
2022/01/12 06:48:56;;;;;;;0.40;0.30;;;;;;;0.71;100.00;103026.00;5093354;28;20535;-71
2022/01/12 06:51:23;;;;;;;0.40;0.30;;;;;;;0.73;100.00;103020.47;5093771;28;20497;-70
2022/01/12 06:53:52;;;;;;;0.40;0.30;;;;;;;0.74;100.00;103038.13;5093252;28;20464;-70
2022/01/12 06:56:19;;;;;;;0.40;0.30;;;;;;;0.73;100.00;103031.16;5093134;28;20445;-71
2022/01/12 06:58:45;;;;;;;0.40;0.30;;;;;;;0.67;100.00;103035.34;5093328;28;20440;-71
2022/01/12 07:01:13;;;;;;;0.40;0.30;;;;;;;0.68;100.00;103039.66;5093242;28;20812;-71
2022/01/12 07:03:39;;;;;;;0.40;0.30;;;;;;;0.68;100.00;103049.50;5092811;28;20475;-73
2022/01/12 07:06:06;;;;;;;0.40;0.30;;;;;;;0.72;100.00;103041.00;5093237;28;20485;-75
2022/01/12 07:08:34;;;;;;;0.40;0.30;;;;;;;0.79;100.00;103041.09;5093377;28;20448;-75
2022/01/12 07:11:01;;;;;;;0.40;0.30;;;;;;;0.79;100.00;103043.78;5093172;28;20447;-75
2022/01/12 07:13:27;;;;;;;0.40;0.30;;;;;;;0.71;100.00;103047.34;5092812;28;21008;-74
2022/01/12 07:15:54;;;;;;;0.40;0.30;;;;;;;0.77;100.00;103039.63;5092836;28;20968;-74
2022/01/12 07:18:24;;;;;;;0.40;0.30;;;;;;;0.70;100.00;103034.97;5093062;28;20484;-74
2022/01/12 07:20:51;;;;;;;0.40;0.30;;;;;;;0.69;100.00;103041.31;5093104;28;20440;-73
2022/01/12 07:23:17;;;;;;;2.53;2.43;;;;;;;0.70;100.00;103036.81;5092693;28;20985;-74
2022/01/12 07:25:44;;;;;;;0.40;0.30;;;;;;;0.70;100.00;103042.97;5093084;28;20463;-71
2022/01/12 07:28:10;;;;;;;0.40;0.30;;;;;;;0.63;100.00;103052.69;5093285;28;20472;-71
2022/01/12 07:30:37;;;;;;;1.37;1.27;;;;;;;0.72;100.00;103041.00;5093223;28;20444;-71
2022/01/12 07:33:03;;;;;;;0.40;0.30;;;;;;;0.77;100.00;103042.31;5093093;28;20460;-73
2022/01/12 07:35:31;;;;;;;11.70;10.80;;;;;;;0.77;100.00;103047.63;5094925;28;20436;-74
2022/01/12 07:37:58;;;;;;;0.40;0.30;;;;;;;0.73;100.00;103039.97;5096779;28;20480;-73
2022/01/12 07:40:24;;;;;;;0.40;0.20;;;;;;;0.75;100.00;103045.97;5096784;28;20451;-72
2022/01/12 07:42:51;;;;;;;0.40;0.30;;;;;;;0.71;100.00;103059.84;5096592;28;20472;-73
2022/01/12 07:45:18;;;;;;;0.40;0.30;;;;;;;0.85;100.00;103060.94;5096283;28;20846;-73
2022/01/12 07:47:45;;;;;;;0.40;0.30;;;;;;;1.00;100.00;103061.84;5096263;28;20814;-72
2022/01/12 07:50:12;;;;;;;0.40;0.30;;;;;;;0.93;100.00;103063.53;5096138;28;20860;-72
2022/01/12 07:52:40;;;;;;;0.70;0.70;;;;;;;1.07;100.00;103065.47;5096315;28;20456;-72
2022/01/12 07:55:08;;;;;;;0.40;0.20;;;;;;;1.21;100.00;103061.22;5096546;28;20444;-73
2022/01/12 07:57:34;;;;;;;0.40;0.30;;;;;;;1.24;100.00;103059.03;5096316;28;20479;-73
2022/01/12 08:00:03;;;;;;;0.40;0.30;;;;;;;1.28;100.00;103059.47;5096445;28;20435;-73
2022/01/12 08:02:30;;;;;;;0.40;0.20;;;;;;;1.32;100.00;103057.28;5096180;28;20904;-73
2022/01/12 08:04:57;;;;;;;0.40;0.30;;;;;;;1.28;100.00;103070.16;5096352;28;20493;-74
2022/01/12 08:07:23;;;;;;;1.60;1.50;;;;;;;1.36;100.00;103079.97;5096353;28;20440;-74
2022/01/12 08:09:52;;;;;;;0.40;0.30;;;;;;;1.37;99.64;103085.09;5095893;28;20440;-74
2022/01/12 08:12:18;;;;;;;0.40;0.30;;;;;;;1.34;99.88;103092.66;5096144;28;20525;-74
2022/01/12 08:14:45;;;;;;;0.40;0.30;;;;;;;1.46;99.54;103088.56;5096108;28;20441;-74
2022/01/12 08:17:11;;;;;;;0.40;0.30;;;;;;;1.49;98.75;103086.34;5096287;28;20480;-74
2022/01/12 08:19:39;;;;;;;1.63;1.53;;;;;;;1.57;98.62;103084.66;5096111;28;20447;-74
2022/01/12 08:22:05;;;;;;;0.40;0.30;;;;;;;1.56;98.40;103083.81;5095977;28;20872;-74
2022/01/12 08:24:32;;;;;;;0.40;0.30;;;;;;;1.61;98.95;103084.09;5095931;28;20450;-75
2022/01/12 08:27:00;;;;;;;0.40;0.30;;;;;;;1.66;98.52;103087.06;5096049;28;20441;-74
2022/01/12 08:29:28;;;;;;;1.37;1.37;;;;;;;1.72;98.80;103091.69;5095561;28;20443;-73
2022/01/12 08:31:56;;;;;;;0.40;0.30;;;;;;;1.74;98.75;103094.19;5095510;28;20448;-74
2022/01/12 08:34:23;;;;;;;0.40;0.30;;;;;;;1.76;98.74;103090.31;5095803;28;20467;-74
2022/01/12 08:36:50;;;;;;;0.40;0.30;;;;;;;1.69;99.05;103092.06;5095664;28;20448;-74
2022/01/12 08:39:16;;;;;;;3.83;3.60;;;;;;;1.74;99.17;103089.69;5095666;28;20449;-74
2022/01/12 08:41:43;;;;;;;0.40;0.30;;;;;;;1.80;99.03;103092.63;5095931;28;20443;-73
2022/01/12 08:44:11;;;;;;;0.40;0.30;;;;;;;1.85;98.74;103096.41;5094896;28;20507;-74
2022/01/12 08:46:39;;;;;;;0.40;0.30;;;;;;;1.89;98.56;103096.88;5094861;28;20441;-74
2022/01/12 08:49:06;;;;;;;0.40;0.30;;;;;;;1.92;98.48;103102.72;5095546;28;20444;-74
2022/01/12 08:51:32;;;;;;;0.40;0.30;;;;;;;1.97;98.28;103104.84;5095373;28;20443;-74
2022/01/12 08:53:59;;;;;;;0.40;0.30;;;;;;;2.00;98.89;103099.97;5094958;28;20821;-73
2022/01/12 08:56:25;;;;;;;0.40;0.30;;;;;;;2.01;98.93;103096.28;5095231;28;20440;-69
2022/01/12 08:58:52;;;;;;;0.40;0.30;;;;;;;2.02;98.65;103097.09;5095109;28;20495;-71
2022/01/12 09:01:20;;;;;;;0.40;0.30;;;;;;;2.02;98.75;103097.09;5095120;28;20448;-71
2022/01/12 09:03:48;;;;;;;0.40;0.40;;;;;;;2.04;99.55;103105.78;5094765;28;20517;-76
2022/01/12 09:06:15;;;;;;;0.40;0.30;;;;;;;2.07;99.31;103110.75;5095345;28;20449;-76
2022/01/12 09:08:44;;;;;;;0.40;0.30;;;;;;;2.09;99.61;103103.41;5095112;28;20437;-73
2022/01/12 09:11:11;;;;;;;0.40;0.30;;;;;;;2.10;99.34;103107.72;5095016;28;20441;-73
2022/01/12 09:13:38;;;;;;;0.40;0.30;;;;;;;2.13;99.58;103114.56;5094928;28;20448;-74
2022/01/12 09:16:06;;;;;;;0.40;0.30;;;;;;;2.09;99.90;103108.75;5094585;28;20960;-75
2022/01/12 09:18:34;;;;;;;0.40;0.30;;;;;;;2.14;99.66;103108.19;5094804;28;20483;-75
2022/01/12 09:21:01;;;;;;;0.40;0.30;;;;;;;2.13;99.50;103106.53;5094786;28;20444;-75
2022/01/12 09:23:27;;;;;;;0.40;0.30;;;;;;;2.13;99.92;103102.03;5094686;28;20464;-75
2022/01/12 09:25:54;;;;;;;0.50;0.30;;;;;;;2.13;99.95;103099.34;5094384;28;20973;-76
2022/01/12 09:28:20;;;;;;;0.40;0.30;;;;;;;2.14;99.74;103095.66;5094630;28;20441;-75
2022/01/12 09:30:47;;;;;;;0.50;0.30;;;;;;;2.13;99.76;103102.03;5094728;28;20451;-75
2022/01/12 09:33:13;;;;;;;0.80;0.80;;;;;;;2.14;100.00;103084.13;5094757;28;20468;-75
2022/01/12 09:35:43;;;;;;;0.50;0.33;;;;;;;2.20;100.00;103091.41;5094517;28;20440;-75
2022/01/12 09:38:09;;;;;;;0.40;0.30;;;;;;;2.23;100.00;103093.72;5094640;28;20491;-75
2022/01/12 09:40:36;;;;;;;0.40;0.30;;;;;;;2.31;100.00;103092.81;5094424;28;20451;-75
2022/01/12 09:43:04;;;;;;;0.40;0.23;;;;;;;2.32;100.00;103100.66;5094270;28;20472;-76
2022/01/12 09:45:32;;;;;;;0.40;0.33;;;;;;;2.35;100.00;103094.13;5094287;28;20447;-76
2022/01/12 09:47:58;;;;;;;0.40;0.20;;;;;;;2.38;100.00;103091.06;5094241;28;20432;-76
2022/01/12 09:50:26;;;;;;;0.40;0.30;;;;;;;2.35;100.00;103092.28;5094291;28;20452;-75
2022/01/12 09:52:54;;;;;;;0.40;0.30;;;;;;;2.42;100.00;103097.69;5094123;28;20469;-75
2022/01/12 09:55:21;;;;;;;0.40;0.30;;;;;;;2.48;100.00;103100.47;5094173;28;20865;-75
2022/01/12 09:57:47;;;;;;;0.40;0.30;;;;;;;2.53;100.00;103089.22;5093820;28;20487;-75
2022/01/12 10:00:16;;;;;;;1.13;1.13;;;;;;;2.57;100.00;103079.81;5093349;28;20444;-75
2022/01/12 10:02:43;;;;;;;0.47;0.30;;;;;;;2.58;100.00;103070.75;5093695;28;20483;-75
2022/01/12 10:05:10;;;;;;;0.40;0.30;;;;;;;2.64;100.00;103070.00;5093997;28;20447;-75
2022/01/12 10:07:37;;;;;;;0.40;0.30;;;;;;;2.58;100.00;103069.94;5093935;28;20444;-75
2022/01/12 10:10:08;;;;;;;0.40;0.30;;;;;;;2.65;100.00;103081.53;5093922;28;20444;-75
2022/01/12 10:12:35;;;;;;;0.40;0.30;;;;;;;2.72;100.00;103080.63;5093964;28;20471;-75
2022/01/12 10:15:09;;;;;;;0.40;0.30;;;;;;;2.80;100.00;103074.34;5093826;28;20440;-75
2022/01/12 10:17:38;;;;;;;0.40;0.20;;;;;;;2.90;100.00;103069.50;5093810;28;20513;-75
2022/01/12 10:20:10;;;;;;;0.40;0.30;;;;;;;3.02;100.00;103068.00;5093751;28;20439;-75
2022/01/12 10:22:37;;;;;;;0.40;0.30;;;;;;;3.09;100.00;103073.41;5093671;28;20836;-75
2022/01/12 10:25:16;;;;;;;0.40;0.20;;;;;;;3.10;100.00;103061.72;5093701;28;20449;-75
2022/01/12 10:27:42;;;;;;;0.40;0.30;;;;;;;3.18;100.00;103056.22;5093714;28;20424;-75
2022/01/12 10:30:20;;;;;;;0.40;0.20;;;;;;;3.31;100.00;103060.03;5093612;28;20436;-75
2022/01/12 10:32:47;;;;;;;0.80;0.80;;;;;;;3.38;100.00;103069.81;5093236;28;20819;-75
2022/01/12 10:35:13;;;;;;;0.40;0.30;;;;;;;3.34;100.00;103062.34;5093537;28;20436;-75
2022/01/12 10:37:40;;;;;;;0.40;0.30;;;;;;;3.33;99.99;103066.06;5093313;28;20487;-75
2022/01/12 10:40:09;;;;;;;0.40;0.30;;;;;;;3.39;99.67;103062.59;5093470;28;20448;-76
2022/01/12 10:42:38;;;;;;;0.40;0.30;;;;;;;3.40;99.23;103054.38;5093379;28;20550;-75
2022/01/12 10:45:06;;;;;;;0.40;0.30;;;;;;;3.38;98.94;103050.22;5093417;28;20452;-75
2022/01/12 10:47:32;;;;;;;0.40;0.30;;;;;;;3.39;98.87;103043.84;5093070;28;20812;-75
2022/01/12 10:50:02;;;;;;;0.40;0.30;;;;;;;3.42;98.78;103044.31;5093314;28;20475;-75
2022/01/12 10:52:31;;;;;;;0.40;0.20;;;;;;;3.42;98.40;103052.34;5093492;28;20472;-75
2022/01/12 10:55:00;;;;;;;13.20;9.70;;;;;;;3.41;98.18;103061.41;5093328;28;20519;-76
2022/01/12 10:57:30;;;;;;;0.40;0.30;;;;;;;3.44;98.07;103068.22;5093525;28;20453;-75
2022/01/12 11:00:08;;;;;;;0.40;0.30;;;;;;;3.35;98.45;103072.88;5093273;28;20437;-75
2022/01/12 11:02:36;;;;;;;0.50;0.40;;;;;;;3.35;98.99;103067.50;5092887;28;20485;-74
2022/01/12 11:05:04;;;;;;;0.40;0.23;;;;;;;3.40;98.72;103069.59;5093189;28;20452;-75
2022/01/12 11:07:31;;;;;;;4.60;4.33;;;;;;;3.44;98.44;103063.69;5093157;28;20432;-75
2022/01/12 11:09:59;;;;;;;0.40;0.30;;;;;;;3.49;98.44;103068.47;5093998;28;20448;-74
2022/01/12 11:12:27;;;;;;;0.40;0.20;;;;;;;3.53;98.60;103075.09;5097193;28;20467;-75
2022/01/12 11:14:54;;;;;;;0.60;0.60;;;;;;;3.55;98.54;103073.06;5097217;28;20439;-75
2022/01/12 11:17:22;;;;;;;2.30;2.20;;;;;;;3.58;98.40;103069.16;5097258;28;20444;-75
2022/01/12 11:19:58;;;;;;;0.40;0.30;;;;;;;3.56;98.17;103063.19;5097080;28;20491;-75
2022/01/12 11:22:34;;;;;;;0.40;0.30;;;;;;;3.57;98.10;103059.47;5096749;28;20459;-75
2022/01/12 11:25:01;;;;;;;0.40;0.30;;;;;;;3.55;98.39;103054.31;5097110;28;20448;-75
2022/01/12 11:27:28;;;;;;;0.73;0.53;;;;;;;3.56;98.58;103053.28;5096734;28;20448;-75
2022/01/12 11:29:55;;;;;;;0.40;0.27;;;;;;;3.52;98.92;103054.69;5096949;28;20486;-75
2022/01/12 11:32:25;;;;;;;0.40;0.30;;;;;;;3.56;98.87;103058.63;5096844;28;20555;-75
2022/01/12 11:35:01;;;;;;;0.40;0.20;;;;;;;3.57;99.65;103059.47;5096912;28;20440;-75
2022/01/12 11:37:27;;;;;;;0.40;0.30;;;;;;;3.59;99.38;103057.44;5096856;28;20443;-75
2022/01/12 11:39:54;;;;;;;0.40;0.30;;;;;;;3.58;99.86;103061.94;5096710;28;20475;-75
2022/01/12 11:42:20;;;;;;;0.40;0.30;;;;;;;3.57;100.00;103065.66;5096593;28;20460;-75
2022/01/12 11:44:47;;;;;;;0.40;0.30;;;;;;;3.60;100.00;103067.13;5096712;28;20489;-75
2022/01/12 11:47:16;;;;;;;0.40;0.30;;;;;;;3.59;100.00;103070.84;5096896;28;20535;-75
2022/01/12 11:49:46;;;;;;;0.40;0.30;;;;;;;3.60;100.00;103067.94;5096606;28;20871;-75
2022/01/12 11:52:18;;;;;;;0.40;0.27;;;;;;;3.65;100.00;103068.19;5096193;28;20998;-74
2022/01/12 11:54:47;;;;;;;0.40;0.30;;;;;;;3.61;100.00;103069.59;5096928;28;20445;-75
2022/01/12 11:57:18;;;;;;;0.40;0.30;;;;;;;3.64;100.00;103071.91;5096451;28;20440;-75
2022/01/12 11:59:56;;;;;;;0.40;0.20;;;;;;;3.67;100.00;103065.31;5096311;28;20483;-75
2022/01/12 12:02:33;;;;;;;0.40;0.30;;;;;;;3.70;100.00;103070.31;5096155;28;20483;-75
2022/01/12 12:05:03;;;;;;;2.10;2.00;;;;;;;3.75;100.00;103065.19;5096167;28;20906;-75
2022/01/12 12:07:29;;;;;;;0.40;0.30;;;;;;;3.75;100.00;103060.66;5097762;28;20412;-74
2022/01/12 12:09:59;;;;;;;0.40;0.20;;;;;;;3.80;100.00;103073.47;5096214;28;20436;-75
2022/01/12 12:12:29;;;;;;;0.50;0.40;;;;;;;3.80;100.00;103065.44;5096220;28;20517;-75
2022/01/12 12:14:58;;;;;;;0.40;0.30;;;;;;;3.79;100.00;103069.97;5096216;28;20425;-75
2022/01/12 12:17:26;;;;;;;0.40;0.20;;;;;;;3.74;100.00;103067.03;5096108;28;20469;-75
2022/01/12 12:19:53;;;;;;;0.40;0.30;;;;;;;3.80;100.00;103070.78;5096090;28;20511;-75
2022/01/12 12:22:22;;;;;;;0.40;0.30;;;;;;;3.86;100.00;103074.56;5094828;28;20456;-75
2022/01/12 12:24:58;;;;;;;1.90;1.80;;;;;;;3.88;100.00;103080.53;5096003;28;20452;-74